sensor_id;sensor_type;location;lat;lon;timestamp;P1;durP1;ratioP1;P2;durP2;ratioP2
69256;SDS011;56376;53.356;-1.748;2022-12-10T00:01:38;19.17;;;13.43;;
69256;SDS011;56376;53.356;-1.748;2022-12-10T00:04:04;19.67;;;12.90;;
69256;SDS011;56376;53.356;-1.748;2022-12-10T00:06:31;16.97;;;11.83;;
69256;SDS011;56376;53.356;-1.748;2022-12-10T00:08:58;17.10;;;11.20;;
69256;SDS011;56376;53.356;-1.748;2022-12-10T00:11:25;18.17;;;12.47;;
69256;SDS011;56376;53.356;-1.748;2022-12-10T00:13:51;18.57;;;12.73;;
69256;SDS011;56376;53.356;-1.748;2022-12-10T00:16:18;18.13;;;12.77;;
69256;SDS011;56376;53.356;-1.748;2022-12-10T00:18:45;17.17;;;11.73;;
69256;SDS011;56376;53.356;-1.748;2022-12-10T00:21:13;16.90;;;11.57;;
69256;SDS011;56376;53.356;-1.748;2022-12-10T00:23:40;16.03;;;10.97;;
69256;SDS011;56376;53.356;-1.748;2022-12-10T00:26:07;16.07;;;11.10;;
69256;SDS011;56376;53.356;-1.748;2022-12-10T00:28:34;18.23;;;10.53;;
69256;SDS011;56376;53.356;-1.748;2022-12-10T00:31:04;16.27;;;11.23;;
69256;SDS011;56376;53.356;-1.748;2022-12-10T00:33:31;15.93;;;10.80;;
69256;SDS011;56376;53.356;-1.748;2022-12-10T00:36:00;14.77;;;9.87;;
69256;SDS011;56376;53.356;-1.748;2022-12-10T00:38:30;12.68;;;9.18;;
69256;SDS011;56376;53.356;-1.748;2022-12-10T00:40:56;14.10;;;8.77;;
69256;SDS011;56376;53.356;-1.748;2022-12-10T00:43:21;11.63;;;8.70;;
69256;SDS011;56376;53.356;-1.748;2022-12-10T00:45:46;13.80;;;9.10;;
69256;SDS011;56376;53.356;-1.748;2022-12-10T00:48:12;12.37;;;8.30;;
69256;SDS011;56376;53.356;-1.748;2022-12-10T00:50:37;11.13;;;8.13;;
69256;SDS011;56376;53.356;-1.748;2022-12-10T00:53:03;11.33;;;7.40;;
69256;SDS011;56376;53.356;-1.748;2022-12-10T00:55:28;10.93;;;7.80;;
69256;SDS011;56376;53.356;-1.748;2022-12-10T00:57:53;13.70;;;8.90;;
69256;SDS011;56376;53.356;-1.748;2022-12-10T01:00:19;11.90;;;8.47;;
69256;SDS011;56376;53.356;-1.748;2022-12-10T01:02:44;13.73;;;9.03;;
69256;SDS011;56376;53.356;-1.748;2022-12-10T01:05:09;16.03;;;9.57;;
69256;SDS011;56376;53.356;-1.748;2022-12-10T01:07:35;12.13;;;8.37;;
69256;SDS011;56376;53.356;-1.748;2022-12-10T01:10:01;12.90;;;7.60;;
69256;SDS011;56376;53.356;-1.748;2022-12-10T01:12:26;11.87;;;8.37;;
69256;SDS011;56376;53.356;-1.748;2022-12-10T01:14:52;11.57;;;8.87;;
69256;SDS011;56376;53.356;-1.748;2022-12-10T01:17:17;15.27;;;9.07;;
69256;SDS011;56376;53.356;-1.748;2022-12-10T01:19:42;14.50;;;10.10;;
69256;SDS011;56376;53.356;-1.748;2022-12-10T01:22:08;14.00;;;8.47;;
69256;SDS011;56376;53.356;-1.748;2022-12-10T01:24:33;11.80;;;7.97;;
69256;SDS011;56376;53.356;-1.748;2022-12-10T01:27:00;12.70;;;8.87;;
69256;SDS011;56376;53.356;-1.748;2022-12-10T01:29:25;12.97;;;8.03;;
69256;SDS011;56376;53.356;-1.748;2022-12-10T01:31:53;11.10;;;8.10;;
69256;SDS011;56376;53.356;-1.748;2022-12-10T01:34:20;12.37;;;7.90;;
69256;SDS011;56376;53.356;-1.748;2022-12-10T01:36:48;11.10;;;7.63;;
69256;SDS011;56376;53.356;-1.748;2022-12-10T01:39:16;13.13;;;8.30;;
69256;SDS011;56376;53.356;-1.748;2022-12-10T01:41:48;16.10;;;9.83;;
69256;SDS011;56376;53.356;-1.748;2022-12-10T01:46:42;16.57;;;9.43;;
69256;SDS011;56376;53.356;-1.748;2022-12-10T01:49:11;15.63;;;9.70;;
69256;SDS011;56376;53.356;-1.748;2022-12-10T01:51:39;18.97;;;12.57;;
69256;SDS011;56376;53.356;-1.748;2022-12-10T01:54:08;16.20;;;9.63;;
69256;SDS011;56376;53.356;-1.748;2022-12-10T01:56:44;15.77;;;9.17;;
69256;SDS011;56376;53.356;-1.748;2022-12-10T01:59:13;15.73;;;9.53;;
69256;SDS011;56376;53.356;-1.748;2022-12-10T02:04:56;17.67;;;10.77;;
69256;SDS011;56376;53.356;-1.748;2022-12-10T02:15:48;15.13;;;10.10;;
69256;SDS011;56376;53.356;-1.748;2022-12-10T02:18:21;17.33;;;11.00;;
69256;SDS011;56376;53.356;-1.748;2022-12-10T02:20:53;14.97;;;9.73;;
69256;SDS011;56376;53.356;-1.748;2022-12-10T02:23:33;15.80;;;9.83;;
69256;SDS011;56376;53.356;-1.748;2022-12-10T02:28:44;17.03;;;10.67;;
69256;SDS011;56376;53.356;-1.748;2022-12-10T02:31:30;14.67;;;10.17;;
69256;SDS011;56376;53.356;-1.748;2022-12-10T02:33:57;13.77;;;9.33;;
69256;SDS011;56376;53.356;-1.748;2022-12-10T02:36:25;14.67;;;8.63;;
69256;SDS011;56376;53.356;-1.748;2022-12-10T02:38:54;13.70;;;8.37;;
69256;SDS011;56376;53.356;-1.748;2022-12-10T02:41:28;14.33;;;9.13;;
69256;SDS011;56376;53.356;-1.748;2022-12-10T02:44:02;11.77;;;7.77;;
69256;SDS011;56376;53.356;-1.748;2022-12-10T02:46:30;12.87;;;8.47;;
69256;SDS011;56376;53.356;-1.748;2022-12-10T02:48:58;13.03;;;8.50;;
69256;SDS011;56376;53.356;-1.748;2022-12-10T02:51:26;10.57;;;7.43;;
69256;SDS011;56376;53.356;-1.748;2022-12-10T02:53:58;13.40;;;9.17;;
69256;SDS011;56376;53.356;-1.748;2022-12-10T02:56:35;14.10;;;8.83;;
69256;SDS011;56376;53.356;-1.748;2022-12-10T03:07:10;14.40;;;9.00;;
69256;SDS011;56376;53.356;-1.748;2022-12-10T03:09:47;14.27;;;9.77;;
69256;SDS011;56376;53.356;-1.748;2022-12-10T03:15:03;12.67;;;8.53;;
69256;SDS011;56376;53.356;-1.748;2022-12-10T03:17:33;13.80;;;8.70;;
69256;SDS011;56376;53.356;-1.748;2022-12-10T03:20:01;11.77;;;7.70;;
69256;SDS011;56376;53.356;-1.748;2022-12-10T03:22:28;12.17;;;8.23;;
69256;SDS011;56376;53.356;-1.748;2022-12-10T03:24:55;11.93;;;8.40;;
69256;SDS011;56376;53.356;-1.748;2022-12-10T03:27:22;9.93;;;6.97;;
69256;SDS011;56376;53.356;-1.748;2022-12-10T03:29:53;10.47;;;7.90;;
69256;SDS011;56376;53.356;-1.748;2022-12-10T03:32:21;10.80;;;7.60;;
69256;SDS011;56376;53.356;-1.748;2022-12-10T03:34:50;10.27;;;6.90;;
69256;SDS011;56376;53.356;-1.748;2022-12-10T03:37:18;10.57;;;7.83;;
69256;SDS011;56376;53.356;-1.748;2022-12-10T03:39:44;13.27;;;7.97;;
69256;SDS011;56376;53.356;-1.748;2022-12-10T03:42:10;9.73;;;6.83;;
69256;SDS011;56376;53.356;-1.748;2022-12-10T03:44:37;11.60;;;7.17;;
69256;SDS011;56376;53.356;-1.748;2022-12-10T03:47:05;11.20;;;7.47;;
69256;SDS011;56376;53.356;-1.748;2022-12-10T03:49:36;9.27;;;6.77;;
69256;SDS011;56376;53.356;-1.748;2022-12-10T03:52:01;8.67;;;7.07;;
69256;SDS011;56376;53.356;-1.748;2022-12-10T03:54:27;9.93;;;7.60;;
69256;SDS011;56376;53.356;-1.748;2022-12-10T03:56:52;10.30;;;7.50;;
69256;SDS011;56376;53.356;-1.748;2022-12-10T03:59:18;10.43;;;7.47;;
69256;SDS011;56376;53.356;-1.748;2022-12-10T04:01:43;11.27;;;8.17;;
69256;SDS011;56376;53.356;-1.748;2022-12-10T04:04:09;9.40;;;7.40;;
69256;SDS011;56376;53.356;-1.748;2022-12-10T04:06:36;11.00;;;7.70;;
69256;SDS011;56376;53.356;-1.748;2022-12-10T04:09:03;10.13;;;7.53;;
69256;SDS011;56376;53.356;-1.748;2022-12-10T04:11:28;11.10;;;8.43;;
69256;SDS011;56376;53.356;-1.748;2022-12-10T04:13:54;11.50;;;8.20;;
69256;SDS011;56376;53.356;-1.748;2022-12-10T04:16:38;20.00;;;9.55;;
69256;SDS011;56376;53.356;-1.748;2022-12-10T04:19:04;10.03;;;8.50;;
69256;SDS011;56376;53.356;-1.748;2022-12-10T04:21:37;8.20;;;7.25;;
69256;SDS011;56376;53.356;-1.748;2022-12-10T04:24:23;8.00;;;6.00;;
69256;SDS011;56376;53.356;-1.748;2022-12-10T04:27:10;7.33;;;5.60;;
69256;SDS011;56376;53.356;-1.748;2022-12-10T04:29:42;5.43;;;4.93;;
69256;SDS011;56376;53.356;-1.748;2022-12-10T04:32:08;6.67;;;5.87;;
69256;SDS011;56376;53.356;-1.748;2022-12-10T04:34:34;6.70;;;5.93;;
69256;SDS011;56376;53.356;-1.748;2022-12-10T04:36:59;7.73;;;6.93;;
69256;SDS011;56376;53.356;-1.748;2022-12-10T04:39:26;6.73;;;6.03;;
69256;SDS011;56376;53.356;-1.748;2022-12-10T04:41:51;8.03;;;6.90;;
69256;SDS011;56376;53.356;-1.748;2022-12-10T04:44:17;7.53;;;6.17;;
69256;SDS011;56376;53.356;-1.748;2022-12-10T04:46:44;8.33;;;5.90;;
69256;SDS011;56376;53.356;-1.748;2022-12-10T04:49:10;7.20;;;5.93;;
69256;SDS011;56376;53.356;-1.748;2022-12-10T04:51:35;7.20;;;6.50;;
69256;SDS011;56376;53.356;-1.748;2022-12-10T04:54:01;7.90;;;6.37;;
69256;SDS011;56376;53.356;-1.748;2022-12-10T04:56:27;7.43;;;6.67;;
69256;SDS011;56376;53.356;-1.748;2022-12-10T04:58:54;7.63;;;6.83;;
69256;SDS011;56376;53.356;-1.748;2022-12-10T05:01:20;7.03;;;6.33;;
69256;SDS011;56376;53.356;-1.748;2022-12-10T05:03:45;7.83;;;7.03;;
69256;SDS011;56376;53.356;-1.748;2022-12-10T05:06:12;7.70;;;6.90;;
69256;SDS011;56376;53.356;-1.748;2022-12-10T05:08:39;8.47;;;7.50;;
69256;SDS011;56376;53.356;-1.748;2022-12-10T05:11:06;8.80;;;7.37;;
69256;SDS011;56376;53.356;-1.748;2022-12-10T05:13:33;8.10;;;6.70;;
69256;SDS011;56376;53.356;-1.748;2022-12-10T05:16:00;7.67;;;6.70;;
69256;SDS011;56376;53.356;-1.748;2022-12-10T05:18:27;7.00;;;6.30;;
69256;SDS011;56376;53.356;-1.748;2022-12-10T05:20:52;6.77;;;6.07;;
69256;SDS011;56376;53.356;-1.748;2022-12-10T05:23:18;6.13;;;5.53;;
69256;SDS011;56376;53.356;-1.748;2022-12-10T05:25:59;7.03;;;5.83;;
69256;SDS011;56376;53.356;-1.748;2022-12-10T05:28:45;6.97;;;5.57;;
69256;SDS011;56376;53.356;-1.748;2022-12-10T05:31:19;6.60;;;5.77;;
69256;SDS011;56376;53.356;-1.748;2022-12-10T05:33:47;6.37;;;5.70;;
69256;SDS011;56376;53.356;-1.748;2022-12-10T05:36:14;5.47;;;4.83;;
69256;SDS011;56376;53.356;-1.748;2022-12-10T05:38:41;5.97;;;5.37;;
69256;SDS011;56376;53.356;-1.748;2022-12-10T05:41:11;6.33;;;5.63;;
69256;SDS011;56376;53.356;-1.748;2022-12-10T05:43:38;8.43;;;6.63;;
69256;SDS011;56376;53.356;-1.748;2022-12-10T05:46:05;8.77;;;7.23;;
69256;SDS011;56376;53.356;-1.748;2022-12-10T05:48:32;7.27;;;6.57;;
69256;SDS011;56376;53.356;-1.748;2022-12-10T05:51:02;8.40;;;7.20;;
69256;SDS011;56376;53.356;-1.748;2022-12-10T05:53:31;8.43;;;7.40;;
69256;SDS011;56376;53.356;-1.748;2022-12-10T05:56:05;7.97;;;7.13;;
69256;SDS011;56376;53.356;-1.748;2022-12-10T05:58:32;9.20;;;7.70;;
69256;SDS011;56376;53.356;-1.748;2022-12-10T06:00:59;8.33;;;7.53;;
69256;SDS011;56376;53.356;-1.748;2022-12-10T06:03:28;8.67;;;7.57;;
69256;SDS011;56376;53.356;-1.748;2022-12-10T06:05:53;9.30;;;8.30;;
69256;SDS011;56376;53.356;-1.748;2022-12-10T06:08:19;8.70;;;7.30;;
69256;SDS011;56376;53.356;-1.748;2022-12-10T06:10:44;8.97;;;7.63;;
69256;SDS011;56376;53.356;-1.748;2022-12-10T06:13:10;9.60;;;8.13;;
69256;SDS011;56376;53.356;-1.748;2022-12-10T06:15:37;9.20;;;7.63;;
69256;SDS011;56376;53.356;-1.748;2022-12-10T06:18:04;8.87;;;7.27;;
69256;SDS011;56376;53.356;-1.748;2022-12-10T06:20:29;8.13;;;6.33;;
69256;SDS011;56376;53.356;-1.748;2022-12-10T06:22:55;6.83;;;6.00;;
69256;SDS011;56376;53.356;-1.748;2022-12-10T06:25:20;7.53;;;6.40;;
69256;SDS011;56376;53.356;-1.748;2022-12-10T06:27:45;6.37;;;5.47;;
69256;SDS011;56376;53.356;-1.748;2022-12-10T06:30:11;7.73;;;6.60;;
69256;SDS011;56376;53.356;-1.748;2022-12-10T06:32:36;6.80;;;5.93;;
69256;SDS011;56376;53.356;-1.748;2022-12-10T06:35:02;7.03;;;5.87;;
69256;SDS011;56376;53.356;-1.748;2022-12-10T06:37:29;6.23;;;5.57;;
69256;SDS011;56376;53.356;-1.748;2022-12-10T06:39:54;7.47;;;6.27;;
69256;SDS011;56376;53.356;-1.748;2022-12-10T06:42:20;7.33;;;6.27;;
69256;SDS011;56376;53.356;-1.748;2022-12-10T06:44:46;7.03;;;6.07;;
69256;SDS011;56376;53.356;-1.748;2022-12-10T06:47:12;6.07;;;5.47;;
69256;SDS011;56376;53.356;-1.748;2022-12-10T06:49:38;6.07;;;5.23;;
69256;SDS011;56376;53.356;-1.748;2022-12-10T06:52:03;5.23;;;4.47;;
69256;SDS011;56376;53.356;-1.748;2022-12-10T06:54:29;5.40;;;4.70;;
69256;SDS011;56376;53.356;-1.748;2022-12-10T06:56:54;5.53;;;4.90;;
69256;SDS011;56376;53.356;-1.748;2022-12-10T06:59:20;5.97;;;5.37;;
69256;SDS011;56376;53.356;-1.748;2022-12-10T07:01:45;6.10;;;4.90;;
69256;SDS011;56376;53.356;-1.748;2022-12-10T07:04:11;5.17;;;4.67;;
69256;SDS011;56376;53.356;-1.748;2022-12-10T07:06:37;5.77;;;5.10;;
69256;SDS011;56376;53.356;-1.748;2022-12-10T07:09:03;5.53;;;4.50;;
69256;SDS011;56376;53.356;-1.748;2022-12-10T07:11:28;5.30;;;4.43;;
69256;SDS011;56376;53.356;-1.748;2022-12-10T07:13:55;5.47;;;4.90;;
69256;SDS011;56376;53.356;-1.748;2022-12-10T07:16:23;4.60;;;4.10;;
69256;SDS011;56376;53.356;-1.748;2022-12-10T07:18:50;4.90;;;4.20;;
69256;SDS011;56376;53.356;-1.748;2022-12-10T07:21:17;4.47;;;3.77;;
69256;SDS011;56376;53.356;-1.748;2022-12-10T07:26:18;4.93;;;4.23;;
69256;SDS011;56376;53.356;-1.748;2022-12-10T07:28:44;5.40;;;4.60;;
69256;SDS011;56376;53.356;-1.748;2022-12-10T07:31:11;5.40;;;4.87;;
69256;SDS011;56376;53.356;-1.748;2022-12-10T07:33:36;5.30;;;4.07;;
69256;SDS011;56376;53.356;-1.748;2022-12-10T07:36:03;4.43;;;4.03;;
69256;SDS011;56376;53.356;-1.748;2022-12-10T07:38:32;5.17;;;4.27;;
69256;SDS011;56376;53.356;-1.748;2022-12-10T07:41:01;5.23;;;4.60;;
69256;SDS011;56376;53.356;-1.748;2022-12-10T07:43:28;6.50;;;5.23;;
69256;SDS011;56376;53.356;-1.748;2022-12-10T07:45:54;5.83;;;4.70;;
69256;SDS011;56376;53.356;-1.748;2022-12-10T07:48:20;5.20;;;4.50;;
69256;SDS011;56376;53.356;-1.748;2022-12-10T07:50:45;5.23;;;4.73;;
69256;SDS011;56376;53.356;-1.748;2022-12-10T07:53:10;4.77;;;4.17;;
69256;SDS011;56376;53.356;-1.748;2022-12-10T07:55:36;4.57;;;4.13;;
69256;SDS011;56376;53.356;-1.748;2022-12-10T07:58:02;5.30;;;4.30;;
69256;SDS011;56376;53.356;-1.748;2022-12-10T08:00:28;4.57;;;4.17;;
69256;SDS011;56376;53.356;-1.748;2022-12-10T08:02:53;5.20;;;4.50;;
69256;SDS011;56376;53.356;-1.748;2022-12-10T08:05:19;4.33;;;3.90;;
69256;SDS011;56376;53.356;-1.748;2022-12-10T08:07:44;4.63;;;4.20;;
69256;SDS011;56376;53.356;-1.748;2022-12-10T08:10:10;4.73;;;3.83;;
69256;SDS011;56376;53.356;-1.748;2022-12-10T08:12:36;4.17;;;3.47;;
69256;SDS011;56376;53.356;-1.748;2022-12-10T08:15:01;4.00;;;3.60;;
69256;SDS011;56376;53.356;-1.748;2022-12-10T08:17:27;4.73;;;4.23;;
69256;SDS011;56376;53.356;-1.748;2022-12-10T08:19:53;5.77;;;4.50;;
69256;SDS011;56376;53.356;-1.748;2022-12-10T08:22:19;4.83;;;4.13;;
69256;SDS011;56376;53.356;-1.748;2022-12-10T08:24:45;4.83;;;4.27;;
69256;SDS011;56376;53.356;-1.748;2022-12-10T08:27:10;4.53;;;3.93;;
69256;SDS011;56376;53.356;-1.748;2022-12-10T08:29:36;4.53;;;3.67;;
69256;SDS011;56376;53.356;-1.748;2022-12-10T08:32:01;3.83;;;3.43;;
69256;SDS011;56376;53.356;-1.748;2022-12-10T08:34:27;3.97;;;3.57;;
69256;SDS011;56376;53.356;-1.748;2022-12-10T08:36:52;4.60;;;4.10;;
69256;SDS011;56376;53.356;-1.748;2022-12-10T08:39:18;4.13;;;3.53;;
69256;SDS011;56376;53.356;-1.748;2022-12-10T08:41:44;3.80;;;3.40;;
69256;SDS011;56376;53.356;-1.748;2022-12-10T08:44:11;3.40;;;3.10;;
69256;SDS011;56376;53.356;-1.748;2022-12-10T08:46:37;3.80;;;3.40;;
69256;SDS011;56376;53.356;-1.748;2022-12-10T08:49:03;4.13;;;3.73;;
69256;SDS011;56376;53.356;-1.748;2022-12-10T08:51:30;4.93;;;4.33;;
69256;SDS011;56376;53.356;-1.748;2022-12-10T08:53:55;7.20;;;5.00;;
69256;SDS011;56376;53.356;-1.748;2022-12-10T08:56:21;7.83;;;5.43;;
69256;SDS011;56376;53.356;-1.748;2022-12-10T08:58:46;10.03;;;6.70;;
69256;SDS011;56376;53.356;-1.748;2022-12-10T09:01:14;8.13;;;6.10;;
69256;SDS011;56376;53.356;-1.748;2022-12-10T09:03:41;10.20;;;7.03;;
69256;SDS011;56376;53.356;-1.748;2022-12-10T09:06:08;9.67;;;7.17;;
69256;SDS011;56376;53.356;-1.748;2022-12-10T09:08:36;9.23;;;7.47;;
69256;SDS011;56376;53.356;-1.748;2022-12-10T09:11:06;10.77;;;7.30;;
69256;SDS011;56376;53.356;-1.748;2022-12-10T09:13:34;9.10;;;6.70;;
69256;SDS011;56376;53.356;-1.748;2022-12-10T09:15:59;8.93;;;6.50;;
69256;SDS011;56376;53.356;-1.748;2022-12-10T09:18:25;9.47;;;7.37;;
69256;SDS011;56376;53.356;-1.748;2022-12-10T09:20:50;9.23;;;7.17;;
69256;SDS011;56376;53.356;-1.748;2022-12-10T09:23:15;8.73;;;6.77;;
69256;SDS011;56376;53.356;-1.748;2022-12-10T09:25:41;7.83;;;6.17;;
69256;SDS011;56376;53.356;-1.748;2022-12-10T09:28:06;9.50;;;6.60;;
69256;SDS011;56376;53.356;-1.748;2022-12-10T09:30:32;8.13;;;6.63;;
69256;SDS011;56376;53.356;-1.748;2022-12-10T09:32:57;8.80;;;7.10;;
69256;SDS011;56376;53.356;-1.748;2022-12-10T09:35:23;8.33;;;6.77;;
69256;SDS011;56376;53.356;-1.748;2022-12-10T09:37:48;8.40;;;6.27;;
69256;SDS011;56376;53.356;-1.748;2022-12-10T09:40:18;8.17;;;6.50;;
69256;SDS011;56376;53.356;-1.748;2022-12-10T09:42:51;8.03;;;6.40;;
69256;SDS011;56376;53.356;-1.748;2022-12-10T09:53:20;7.40;;;6.23;;
69256;SDS011;56376;53.356;-1.748;2022-12-10T09:55:47;7.83;;;6.23;;
69256;SDS011;56376;53.356;-1.748;2022-12-10T09:58:16;7.73;;;6.13;;
69256;SDS011;56376;53.356;-1.748;2022-12-10T10:00:46;8.27;;;7.03;;
69256;SDS011;56376;53.356;-1.748;2022-12-10T10:03:15;7.40;;;5.83;;
69256;SDS011;56376;53.356;-1.748;2022-12-10T10:05:46;8.13;;;5.80;;
69256;SDS011;56376;53.356;-1.748;2022-12-10T10:08:15;8.57;;;6.70;;
69256;SDS011;56376;53.356;-1.748;2022-12-10T10:10:54;7.30;;;5.40;;
69256;SDS011;56376;53.356;-1.748;2022-12-10T10:13:29;7.33;;;5.90;;
69256;SDS011;56376;53.356;-1.748;2022-12-10T10:18:46;8.63;;;6.93;;
69256;SDS011;56376;53.356;-1.748;2022-12-10T10:21:36;7.43;;;5.97;;
69256;SDS011;56376;53.356;-1.748;2022-12-10T10:24:04;8.60;;;6.27;;
69256;SDS011;56376;53.356;-1.748;2022-12-10T10:26:32;7.97;;;6.50;;
69256;SDS011;56376;53.356;-1.748;2022-12-10T10:29:05;6.87;;;5.60;;
69256;SDS011;56376;53.356;-1.748;2022-12-10T10:31:32;7.50;;;6.37;;
69256;SDS011;56376;53.356;-1.748;2022-12-10T10:34:03;6.97;;;5.50;;
69256;SDS011;56376;53.356;-1.748;2022-12-10T10:36:35;6.80;;;5.90;;
69256;SDS011;56376;53.356;-1.748;2022-12-10T10:39:10;7.07;;;5.60;;
69256;SDS011;56376;53.356;-1.748;2022-12-10T10:41:44;5.87;;;4.90;;
69256;SDS011;56376;53.356;-1.748;2022-12-10T10:44:16;8.13;;;5.60;;
69256;SDS011;56376;53.356;-1.748;2022-12-10T10:46:47;6.13;;;5.23;;
69256;SDS011;56376;53.356;-1.748;2022-12-10T10:51:50;5.80;;;4.87;;
69256;SDS011;56376;53.356;-1.748;2022-12-10T10:57:22;5.93;;;5.00;;
69256;SDS011;56376;53.356;-1.748;2022-12-10T11:00:05;7.73;;;5.47;;
69256;SDS011;56376;53.356;-1.748;2022-12-10T11:02:44;6.43;;;4.63;;
69256;SDS011;56376;53.356;-1.748;2022-12-10T11:07:45;5.70;;;4.83;;
69256;SDS011;56376;53.356;-1.748;2022-12-10T11:10:21;5.40;;;4.60;;
69256;SDS011;56376;53.356;-1.748;2022-12-10T11:17:59;4.17;;;3.60;;
69256;SDS011;56376;53.356;-1.748;2022-12-10T11:20:30;4.07;;;3.43;;
69256;SDS011;56376;53.356;-1.748;2022-12-10T11:22:58;3.93;;;3.47;;
69256;SDS011;56376;53.356;-1.748;2022-12-10T11:25:32;3.77;;;3.40;;
69256;SDS011;56376;53.356;-1.748;2022-12-10T11:28:51;3.50;;;3.20;;
69256;SDS011;56376;53.356;-1.748;2022-12-10T11:34:17;2.53;;;2.33;;
69256;SDS011;56376;53.356;-1.748;2022-12-10T11:39:36;3.17;;;2.67;;
69256;SDS011;56376;53.356;-1.748;2022-12-10T11:44:38;2.87;;;2.50;;
69256;SDS011;56376;53.356;-1.748;2022-12-10T11:52:40;3.23;;;2.40;;
69256;SDS011;56376;53.356;-1.748;2022-12-10T12:00:27;2.77;;;2.57;;
69256;SDS011;56376;53.356;-1.748;2022-12-10T12:05:56;3.50;;;3.00;;
69256;SDS011;56376;53.356;-1.748;2022-12-10T12:09:01;3.87;;;3.40;;
69256;SDS011;56376;53.356;-1.748;2022-12-10T12:14:22;4.67;;;3.93;;
69256;SDS011;56376;53.356;-1.748;2022-12-10T12:19:37;4.17;;;3.23;;
69256;SDS011;56376;53.356;-1.748;2022-12-10T12:25:02;3.17;;;2.70;;
69256;SDS011;56376;53.356;-1.748;2022-12-10T12:27:35;3.00;;;2.70;;
69256;SDS011;56376;53.356;-1.748;2022-12-10T12:30:12;3.43;;;2.93;;
69256;SDS011;56376;53.356;-1.748;2022-12-10T12:43:57;3.03;;;2.60;;
69256;SDS011;56376;53.356;-1.748;2022-12-10T12:46:37;2.83;;;2.30;;
69256;SDS011;56376;53.356;-1.748;2022-12-10T12:52:05;3.83;;;3.30;;
69256;SDS011;56376;53.356;-1.748;2022-12-10T12:54:34;3.67;;;3.10;;
69256;SDS011;56376;53.356;-1.748;2022-12-10T12:57:11;3.63;;;3.10;;
69256;SDS011;56376;53.356;-1.748;2022-12-10T13:05:18;11.10;;;6.03;;
69256;SDS011;56376;53.356;-1.748;2022-12-10T13:08:23;10.27;;;5.70;;
69256;SDS011;56376;53.356;-1.748;2022-12-10T13:10:53;6.23;;;4.53;;
69256;SDS011;56376;53.356;-1.748;2022-12-10T13:35:41;5.10;;;3.67;;
69256;SDS011;56376;53.356;-1.748;2022-12-10T13:40:58;5.43;;;4.60;;
69256;SDS011;56376;53.356;-1.748;2022-12-10T13:43:24;5.13;;;4.17;;
69256;SDS011;56376;53.356;-1.748;2022-12-10T13:46:21;4.90;;;3.80;;
69256;SDS011;56376;53.356;-1.748;2022-12-10T13:49:00;3.90;;;3.43;;
69256;SDS011;56376;53.356;-1.748;2022-12-10T13:51:39;4.93;;;4.10;;
69256;SDS011;56376;53.356;-1.748;2022-12-10T13:59:38;6.07;;;5.27;;
69256;SDS011;56376;53.356;-1.748;2022-12-10T14:05:23;5.13;;;4.63;;
69256;SDS011;56376;53.356;-1.748;2022-12-10T14:08:02;7.07;;;5.90;;
69256;SDS011;56376;53.356;-1.748;2022-12-10T14:10:33;6.07;;;5.37;;
69256;SDS011;56376;53.356;-1.748;2022-12-10T14:13:03;6.73;;;5.07;;
69256;SDS011;56376;53.356;-1.748;2022-12-10T14:15:30;7.03;;;5.50;;
69256;SDS011;56376;53.356;-1.748;2022-12-10T14:18:01;6.70;;;5.10;;
69256;SDS011;56376;53.356;-1.748;2022-12-10T14:20:32;5.63;;;4.77;;
69256;SDS011;56376;53.356;-1.748;2022-12-10T14:23:03;6.50;;;4.93;;
69256;SDS011;56376;53.356;-1.748;2022-12-10T14:25:48;5.97;;;5.13;;
69256;SDS011;56376;53.356;-1.748;2022-12-10T14:28:17;5.77;;;4.77;;
69256;SDS011;56376;53.356;-1.748;2022-12-10T14:30:47;5.90;;;4.73;;
69256;SDS011;56376;53.356;-1.748;2022-12-10T14:33:15;5.83;;;4.80;;
69256;SDS011;56376;53.356;-1.748;2022-12-10T14:35:42;7.03;;;5.00;;
69256;SDS011;56376;53.356;-1.748;2022-12-10T14:38:16;5.63;;;5.10;;
69256;SDS011;56376;53.356;-1.748;2022-12-10T14:40:44;6.43;;;5.10;;
69256;SDS011;56376;53.356;-1.748;2022-12-10T14:43:20;5.50;;;4.90;;
69256;SDS011;56376;53.356;-1.748;2022-12-10T14:45:51;5.97;;;4.93;;
69256;SDS011;56376;53.356;-1.748;2022-12-10T14:48:20;5.73;;;5.07;;
69256;SDS011;56376;53.356;-1.748;2022-12-10T14:50:46;6.00;;;4.83;;
69256;SDS011;56376;53.356;-1.748;2022-12-10T14:53:22;6.10;;;5.07;;
69256;SDS011;56376;53.356;-1.748;2022-12-10T14:55:50;6.50;;;5.00;;
69256;SDS011;56376;53.356;-1.748;2022-12-10T14:58:20;5.70;;;4.97;;
69256;SDS011;56376;53.356;-1.748;2022-12-10T15:00:54;7.67;;;6.27;;
69256;SDS011;56376;53.356;-1.748;2022-12-10T15:03:25;7.20;;;6.27;;
69256;SDS011;56376;53.356;-1.748;2022-12-10T15:05:58;7.10;;;6.17;;
69256;SDS011;56376;53.356;-1.748;2022-12-10T15:08:32;7.23;;;6.20;;
69256;SDS011;56376;53.356;-1.748;2022-12-10T15:10:58;7.00;;;6.30;;
69256;SDS011;56376;53.356;-1.748;2022-12-10T15:13:32;6.03;;;5.20;;
69256;SDS011;56376;53.356;-1.748;2022-12-10T15:16:02;7.03;;;6.07;;
69256;SDS011;56376;53.356;-1.748;2022-12-10T15:18:30;7.93;;;6.13;;
69256;SDS011;56376;53.356;-1.748;2022-12-10T15:21:10;6.87;;;6.10;;
69256;SDS011;56376;53.356;-1.748;2022-12-10T15:23:39;7.33;;;6.10;;
69256;SDS011;56376;53.356;-1.748;2022-12-10T15:26:24;8.13;;;7.13;;
69256;SDS011;56376;53.356;-1.748;2022-12-10T15:29:14;7.77;;;6.90;;
69256;SDS011;56376;53.356;-1.748;2022-12-10T15:31:48;8.10;;;7.33;;
69256;SDS011;56376;53.356;-1.748;2022-12-10T15:34:14;8.43;;;7.40;;
69256;SDS011;56376;53.356;-1.748;2022-12-10T15:39:30;8.67;;;7.73;;
69256;SDS011;56376;53.356;-1.748;2022-12-10T15:42:08;9.03;;;8.13;;
69256;SDS011;56376;53.356;-1.748;2022-12-10T15:44:54;10.20;;;8.30;;
69256;SDS011;56376;53.356;-1.748;2022-12-10T15:47:26;9.80;;;8.80;;
69256;SDS011;56376;53.356;-1.748;2022-12-10T15:49:53;9.97;;;8.80;;
69256;SDS011;56376;53.356;-1.748;2022-12-10T15:52:24;9.57;;;8.57;;
69256;SDS011;56376;53.356;-1.748;2022-12-10T15:54:52;8.70;;;7.63;;
69256;SDS011;56376;53.356;-1.748;2022-12-10T15:57:25;8.90;;;7.90;;
69256;SDS011;56376;53.356;-1.748;2022-12-10T15:59:59;8.63;;;7.77;;
69256;SDS011;56376;53.356;-1.748;2022-12-10T16:02:35;8.40;;;7.53;;
69256;SDS011;56376;53.356;-1.748;2022-12-10T16:07:55;8.87;;;7.90;;
69256;SDS011;56376;53.356;-1.748;2022-12-10T16:10:23;8.13;;;7.33;;
69256;SDS011;56376;53.356;-1.748;2022-12-10T16:12:57;8.30;;;7.50;;
69256;SDS011;56376;53.356;-1.748;2022-12-10T16:17:52;9.53;;;8.20;;
69256;SDS011;56376;53.356;-1.748;2022-12-10T16:20:19;9.17;;;8.27;;
69256;SDS011;56376;53.356;-1.748;2022-12-10T16:22:50;8.83;;;7.80;;
69256;SDS011;56376;53.356;-1.748;2022-12-10T16:25:17;9.13;;;8.03;;
69256;SDS011;56376;53.356;-1.748;2022-12-10T16:27:42;8.93;;;7.47;;
69256;SDS011;56376;53.356;-1.748;2022-12-10T16:30:12;8.40;;;7.67;;
69256;SDS011;56376;53.356;-1.748;2022-12-10T16:32:50;8.17;;;7.13;;
69256;SDS011;56376;53.356;-1.748;2022-12-10T16:35:16;9.10;;;7.73;;
69256;SDS011;56376;53.356;-1.748;2022-12-10T16:37:43;9.03;;;7.43;;
69256;SDS011;56376;53.356;-1.748;2022-12-10T16:40:11;9.00;;;8.00;;
69256;SDS011;56376;53.356;-1.748;2022-12-10T16:42:41;9.87;;;8.70;;
69256;SDS011;56376;53.356;-1.748;2022-12-10T16:45:15;9.37;;;8.13;;
69256;SDS011;56376;53.356;-1.748;2022-12-10T16:47:42;9.17;;;8.17;;
69256;SDS011;56376;53.356;-1.748;2022-12-10T16:50:08;10.17;;;9.13;;
69256;SDS011;56376;53.356;-1.748;2022-12-10T16:52:34;10.63;;;9.03;;
69256;SDS011;56376;53.356;-1.748;2022-12-10T16:55:00;10.33;;;8.90;;
69256;SDS011;56376;53.356;-1.748;2022-12-10T16:57:25;10.90;;;9.30;;
69256;SDS011;56376;53.356;-1.748;2022-12-10T16:59:51;10.07;;;8.50;;
69256;SDS011;56376;53.356;-1.748;2022-12-10T17:02:17;9.27;;;8.27;;
69256;SDS011;56376;53.356;-1.748;2022-12-10T17:04:43;9.50;;;8.50;;
69256;SDS011;56376;53.356;-1.748;2022-12-10T17:07:12;8.83;;;7.93;;
69256;SDS011;56376;53.356;-1.748;2022-12-10T17:09:39;8.67;;;7.77;;